KISP/ISP METAR and TAF weather

Enter ICAO airport designator
Station Type Date Time Source
KISP METAR 2019/06/18 14:56 UTC NOAA

KISP 181456Z 13005KT 1 1/2SM -RA BR OVC004 21/21 A2995 RMK AO2 SFC VIS 4 RAB54 SLP140 P0000 60005 T02110206 58009


Station Type Date Time Source
KISP Decoded METAR 2019/06/18 14:56 UTC NOAA

ISLIP LONG ISLAND MAC ART, NY, United States (KISP) 40-48N 073-06W 43M
Jun 18, 2019 - 10:56 AM EDT / 2019.06.18 1456 UTC
Wind: from the SE (130 degrees) at 6 MPH (5 KT):0
Visibility: 1 1/2 mile(s):0
Sky conditions: overcast
Weather: light rain; mist
Precipitation last hour: A trace
Temperature: 70.0 F (21.1 C)
Dew Point: 69.1 F (20.6 C)
Relative Humidity: 96%
Pressure (altimeter): 29.95 in. Hg (1014 hPa)
Pressure tendency: 0.03 inches (0.9 hPa) lower than three hours ago
ob: KISP 181456Z 13005KT 1 1/2SM -RA BR OVC004 21/21 A2995 RMK AO2 SFC VIS 4 RAB54 SLP140 P0000 60005 T02110206 58009
cycle: 15

Station Type Date Time Source
KISP TAF 2019/06/18 13:18 UTC NOAA

TAF
AMD KISP 181317Z 1813/1912 16005KT 5SM -RA BR OVC004
TEMPO 1813/1815 3SM -SHRA BR
FM181700 VRB05KT 3SM -SHRA BR OVC009
FM182300 VRB03KT 3SM BR VCSH OVC005
FM190500 VRB03KT 2SM BR OVC004

Example: see airport list